createdAt,value
2018-06-03T00:00:18.617Z,19.29
2018-06-03T00:01:18.549Z,19.27
2018-06-03T00:02:18.475Z,19.29
2018-06-03T00:03:18.401Z,19.22
2018-06-03T00:04:18.326Z,19.26
2018-06-03T00:05:18.269Z,19.26
2018-06-03T00:06:18.182Z,19.24
2018-06-03T00:07:18.107Z,19.29
2018-06-03T00:08:18.033Z,19.30
2018-06-03T00:09:17.962Z,19.27
2018-06-03T00:10:17.885Z,19.31
2018-06-03T00:11:17.818Z,19.31
2018-06-03T00:12:17.741Z,19.29
2018-06-03T00:13:17.671Z,19.27
2018-06-03T00:14:17.597Z,19.26
2018-06-03T00:15:17.528Z,19.33
2018-06-03T00:16:17.453Z,19.22
2018-06-03T00:17:17.397Z,19.22
2018-06-03T00:18:17.305Z,19.29
2018-06-03T00:19:17.233Z,19.24
2018-06-03T00:20:17.170Z,19.30
2018-06-03T00:21:17.086Z,19.31
2018-06-03T00:22:17.014Z,19.29
2018-06-03T00:23:16.957Z,19.27
2018-06-03T00:24:16.867Z,19.29
2018-06-03T00:25:16.796Z,19.27
2018-06-03T00:26:16.764Z,19.27
2018-06-03T00:27:16.648Z,19.36
2018-06-03T00:28:16.585Z,19.31
2018-06-03T00:29:16.507Z,19.30
2018-06-03T00:30:16.435Z,19.26
2018-06-03T00:31:16.357Z,19.29
2018-06-03T00:32:16.283Z,19.33
2018-06-03T00:33:16.209Z,19.30
2018-06-03T00:34:16.140Z,19.27
2018-06-03T00:35:16.063Z,19.27
2018-06-03T00:36:15.991Z,19.14
2018-06-03T00:37:15.930Z,19.22
2018-06-03T00:38:15.850Z,19.18
2018-06-03T00:39:15.771Z,19.31
2018-06-03T00:40:15.702Z,19.26
2018-06-03T00:41:15.628Z,19.19
2018-06-03T00:42:15.554Z,19.29
2018-06-03T00:43:15.479Z,19.26
2018-06-03T00:44:15.406Z,19.30
2018-06-03T00:45:15.336Z,19.26
2018-06-03T00:46:15.263Z,19.19
2018-06-03T00:47:15.192Z,19.22
2018-06-03T00:48:15.117Z,19.16
2018-06-03T00:49:15.047Z,19.24
2018-06-03T00:50:14.970Z,19.09
2018-06-03T00:51:14.905Z,19.15
2018-06-03T00:52:14.828Z,19.12
2018-06-03T00:53:14.750Z,19.12
2018-06-03T00:54:14.677Z,19.12
2018-06-03T00:55:14.602Z,19.08
2018-06-03T00:56:14.541Z,19.07
2018-06-03T00:57:14.461Z,19.14
2018-06-03T00:58:14.386Z,18.95
2018-06-03T00:59:14.310Z,18.98
2018-06-03T01:00:14.236Z,19.12
2018-06-03T01:01:14.164Z,19.09
2018-06-03T01:02:14.099Z,19.08
2018-06-03T01:03:14.019Z,19.07
2018-06-03T01:04:13.948Z,19.09
2018-06-03T01:05:13.870Z,19.12
2018-06-03T01:06:13.798Z,19.07
2018-06-03T01:07:13.726Z,19.11
2018-06-03T01:08:13.652Z,19.00
2018-06-03T01:09:13.581Z,18.98
2018-06-03T01:10:13.507Z,19.02
2018-06-03T01:11:13.432Z,19.07
2018-06-03T01:12:13.361Z,18.89
2018-06-03T01:13:13.290Z,18.92
2018-06-03T01:14:13.216Z,18.83
2018-06-03T01:15:13.140Z,18.83
2018-06-03T01:16:13.067Z,18.73
2018-06-03T01:17:12.994Z,18.81
2018-06-03T01:18:12.920Z,18.83
2018-06-03T01:19:12.846Z,18.83
2018-06-03T01:20:12.773Z,18.80
2018-06-03T01:21:12.720Z,18.78
2018-06-03T01:22:12.629Z,18.80
2018-06-03T01:23:12.552Z,18.88
2018-06-03T01:24:12.491Z,18.73
2018-06-03T01:25:12.406Z,18.74
2018-06-03T01:26:12.335Z,18.71
2018-06-03T01:27:12.265Z,18.70
2018-06-03T01:28:12.196Z,18.73
2018-06-03T01:29:12.113Z,18.58
2018-06-03T01:30:12.042Z,18.60
2018-06-03T01:31:11.968Z,18.60
2018-06-03T01:32:11.894Z,18.52
2018-06-03T01:33:11.819Z,18.50
2018-06-03T01:34:11.746Z,18.50
2018-06-03T01:35:11.672Z,18.50
2018-06-03T01:36:11.598Z,18.55
2018-06-03T01:37:11.526Z,18.44
2018-06-03T01:38:11.453Z,18.45
2018-06-03T01:39:11.380Z,18.40
2018-06-03T01:40:11.307Z,18.40
2018-06-03T01:41:11.234Z,18.29
2018-06-03T01:42:11.170Z,18.28
2018-06-03T01:43:11.082Z,18.25
2018-06-03T01:44:11.011Z,18.22
2018-06-03T01:45:10.957Z,18.11
2018-06-03T01:46:10.868Z,18.13
2018-06-03T01:47:10.789Z,18.08
2018-06-03T01:48:10.716Z,18.07
2018-06-03T01:49:10.667Z,18.13
2018-06-03T01:50:10.570Z,18.08
2018-06-03T01:51:10.496Z,18.05
2018-06-03T01:52:10.427Z,17.97
2018-06-03T01:53:10.349Z,18.07
2018-06-03T01:54:10.273Z,18.07
2018-06-03T01:55:10.197Z,18.05
2018-06-03T01:56:10.129Z,18.07
2018-06-03T01:57:10.053Z,18.03
2018-06-03T01:58:09.979Z,18.05
2018-06-03T01:59:09.905Z,18.03
2018-06-03T02:00:09.830Z,18.16
2018-06-03T02:01:09.767Z,18.10
2018-06-03T02:02:09.684Z,18.13
2018-06-03T02:03:09.614Z,18.18
2018-06-03T02:04:09.539Z,18.10
2018-06-03T02:05:09.462Z,18.16
2018-06-03T02:06:09.387Z,18.25
2018-06-03T02:07:09.315Z,18.19
2018-06-03T02:08:09.245Z,18.16
2018-06-03T02:09:09.166Z,18.16
2018-06-03T02:10:09.095Z,18.20
2018-06-03T02:11:09.018Z,18.18
2018-06-03T02:12:08.947Z,18.16
2018-06-03T02:13:08.876Z,18.18
2018-06-03T02:14:08.799Z,18.05
2018-06-03T02:15:08.723Z,18.13
2018-06-03T02:16:08.651Z,18.10
2018-06-03T02:17:08.578Z,18.10
2018-06-03T02:18:08.502Z,18.13
2018-06-03T02:19:08.433Z,18.18
2018-06-03T02:20:08.373Z,18.15
2018-06-03T02:21:08.282Z,18.11
2018-06-03T02:22:08.208Z,18.15
2018-06-03T02:23:08.134Z,18.10
2018-06-03T02:24:08.060Z,18.10
2018-06-03T02:25:07.987Z,18.11
2018-06-03T02:26:07.914Z,18.05
2018-06-03T02:27:07.839Z,18.10
2018-06-03T02:28:07.764Z,18.18
2018-06-03T02:29:07.690Z,18.07
2018-06-03T02:30:07.616Z,18.16
2018-06-03T02:31:07.543Z,18.10
2018-06-03T02:32:07.490Z,18.08
2018-06-03T02:33:07.396Z,18.16
2018-06-03T02:34:07.321Z,18.16
2018-06-03T02:35:07.246Z,18.10
2018-06-03T02:36:07.174Z,18.15
2018-06-03T02:37:07.115Z,18.16
2018-06-03T02:38:07.035Z,18.15
2018-06-03T02:39:06.969Z,18.28
2018-06-03T02:40:06.881Z,18.20
2018-06-03T02:41:06.806Z,18.28
2018-06-03T02:42:06.737Z,18.28
2018-06-03T02:43:06.659Z,18.29
2018-06-03T02:44:06.584Z,18.25
2018-06-03T02:45:06.507Z,18.26
2018-06-03T02:46:06.456Z,18.33
2018-06-03T02:47:06.363Z,18.33
2018-06-03T02:48:06.287Z,18.28
2018-06-03T02:49:06.215Z,18.28
2018-06-03T02:50:06.149Z,18.23
2018-06-03T02:51:06.068Z,18.23
2018-06-03T02:52:06.002Z,18.29
2018-06-03T02:53:05.953Z,18.34
2018-06-03T02:54:05.854Z,18.23
2018-06-03T02:55:05.878Z,18.26
2018-06-03T02:56:05.699Z,18.35
2018-06-03T02:57:05.630Z,18.35
2018-06-03T02:58:05.549Z,18.34
2018-06-03T02:59:05.477Z,18.25
2018-06-03T03:00:05.404Z,18.20
2018-06-03T03:01:05.349Z,18.31
2018-06-03T03:02:05.256Z,18.29
2018-06-03T03:03:05.179Z,18.31
2018-06-03T03:04:05.108Z,18.28
2018-06-03T03:05:05.034Z,18.22
2018-06-03T03:06:04.958Z,18.19
2018-06-03T03:07:04.905Z,18.18
2018-06-03T03:08:04.817Z,18.04
2018-06-03T03:09:04.737Z,18.20
2018-06-03T03:10:04.665Z,18.07
2018-06-03T03:11:04.592Z,18.04
2018-06-03T03:12:04.516Z,18.16
2018-06-03T03:13:04.445Z,18.04
2018-06-03T03:14:04.367Z,18.07
2018-06-03T03:15:04.294Z,18.05
2018-06-03T03:16:04.220Z,18.20
2018-06-03T03:17:04.145Z,18.10
2018-06-03T03:18:04.072Z,18.05
2018-06-03T03:19:03.998Z,18.07
2018-06-03T03:20:03.923Z,18.18
2018-06-03T03:21:03.853Z,18.03
2018-06-03T03:22:03.776Z,18.07
2018-06-03T03:23:03.702Z,18.07
2018-06-03T03:24:03.634Z,18.01
2018-06-03T03:25:03.565Z,18.08
2018-06-03T03:26:03.485Z,18.00
2018-06-03T03:27:03.407Z,18.08
2018-06-03T03:28:03.333Z,18.13
2018-06-03T03:29:03.259Z,18.08
2018-06-03T03:30:03.191Z,18.04
2018-06-03T03:31:03.112Z,18.18
2018-06-03T03:32:03.037Z,18.05
2018-06-03T03:33:02.963Z,18.11
2018-06-03T03:34:02.893Z,18.07
2018-06-03T03:35:02.816Z,18.10
2018-06-03T03:36:02.743Z,18.07
2018-06-03T03:37:02.668Z,18.16
2018-06-03T03:38:02.594Z,18.07
2018-06-03T03:39:02.541Z,18.16
2018-06-03T03:40:02.449Z,18.05
2018-06-03T03:41:02.379Z,18.11
2018-06-03T03:42:02.303Z,18.11
2018-06-03T03:43:02.224Z,18.18
2018-06-03T03:44:02.154Z,18.10
2018-06-03T03:45:02.076Z,18.20
2018-06-03T03:46:02.012Z,18.10
2018-06-03T03:47:01.939Z,18.08
2018-06-03T03:48:01.858Z,18.10
2018-06-03T03:49:01.790Z,18.22
2018-06-03T03:50:01.725Z,18.04
2018-06-03T03:51:01.639Z,18.08
2018-06-03T03:52:01.575Z,18.08
2018-06-03T03:53:01.486Z,18.04
2018-06-03T03:54:01.413Z,18.05
2018-06-03T03:55:01.337Z,18.03
2018-06-03T03:56:01.265Z,18.04
2018-06-03T03:57:01.192Z,18.08
2018-06-03T03:58:01.123Z,18.04
2018-06-03T03:59:01.041Z,18.05
2018-06-03T04:00:00.969Z,18.07
2018-06-03T04:01:00.894Z,17.98
2018-06-03T04:02:00.819Z,18.05
2018-06-03T04:03:00.745Z,18.07
2018-06-03T04:04:00.687Z,18.01
2018-06-03T04:05:00.598Z,18.03
2018-06-03T04:06:00.521Z,18.00
2018-06-03T04:07:00.465Z,17.94
2018-06-03T04:08:00.380Z,17.92
2018-06-03T04:09:00.302Z,17.86
2018-06-03T04:10:00.230Z,17.82
2018-06-03T04:11:00.153Z,17.78
2018-06-03T04:12:00.086Z,17.78
2018-06-03T04:13:00.004Z,17.80
2018-06-03T04:13:59.934Z,17.83
2018-06-03T04:14:59.865Z,17.79
2018-06-03T04:15:59.790Z,17.82
2018-06-03T04:16:59.712Z,17.79
2018-06-03T04:17:59.636Z,17.74
2018-06-03T04:18:59.569Z,17.80
2018-06-03T04:19:59.508Z,17.83
2018-06-03T04:20:59.415Z,17.80
2018-06-03T04:21:59.343Z,17.83
2018-06-03T04:22:59.264Z,17.82
2018-06-03T04:23:59.196Z,17.79
2018-06-03T04:24:59.118Z,17.86
2018-06-03T04:25:59.050Z,17.86
2018-06-03T04:26:58.972Z,17.90
2018-06-03T04:27:58.898Z,17.94
2018-06-03T04:28:58.824Z,17.87
2018-06-03T04:29:58.748Z,18.00
2018-06-03T04:30:58.679Z,18.01
2018-06-03T04:31:58.613Z,18.07
2018-06-03T04:32:58.538Z,18.01
2018-06-03T04:33:58.453Z,18.05
2018-06-03T04:34:58.380Z,18.08
2018-06-03T04:35:58.306Z,18.04
2018-06-03T04:36:58.231Z,18.00
2018-06-03T04:37:58.159Z,18.07
2018-06-03T04:38:58.086Z,18.08
2018-06-03T04:39:58.012Z,18.05
2018-06-03T04:40:57.937Z,18.05
2018-06-03T04:41:57.864Z,17.98
2018-06-03T04:42:57.788Z,18.05
2018-06-03T04:43:57.715Z,17.90
2018-06-03T04:44:57.646Z,18.01
2018-06-03T04:45:57.568Z,18.05
2018-06-03T04:46:57.503Z,18.03
2018-06-03T04:47:57.421Z,18.08
2018-06-03T04:48:57.350Z,18.07
2018-06-03T04:49:57.274Z,18.04
2018-06-03T04:50:57.203Z,18.05
2018-06-03T04:51:57.130Z,18.16
2018-06-03T04:52:57.052Z,18.15
2018-06-03T04:53:56.980Z,18.07
2018-06-03T04:54:56.907Z,18.22
2018-06-03T04:55:56.831Z,18.25
2018-06-03T04:56:56.759Z,18.33
2018-06-03T04:57:56.685Z,18.37
2018-06-03T04:58:56.618Z,18.31
2018-06-03T04:59:56.537Z,18.31
2018-06-03T05:00:56.461Z,18.41
2018-06-03T05:01:56.391Z,18.45
2018-06-03T05:02:56.315Z,18.50
2018-06-03T05:03:56.242Z,18.55
2018-06-03T05:04:56.179Z,18.55
2018-06-03T05:05:56.096Z,18.58
2018-06-03T05:06:56.022Z,18.66
2018-06-03T05:07:55.948Z,18.68
2018-06-03T05:08:55.897Z,18.70
2018-06-03T05:09:55.871Z,18.60
2018-06-03T05:10:55.726Z,18.68
2018-06-03T05:11:55.690Z,18.71
2018-06-03T05:12:55.583Z,18.80
2018-06-03T05:13:55.506Z,18.81
2018-06-03T05:14:55.433Z,18.88
2018-06-03T05:15:55.358Z,18.84
2018-06-03T05:16:55.293Z,18.84
2018-06-03T05:17:55.214Z,18.95
2018-06-03T05:18:55.139Z,18.98
2018-06-03T05:19:55.090Z,19.04
2018-06-03T05:20:54.994Z,19.08
2018-06-03T05:21:54.924Z,19.15
2018-06-03T05:22:54.847Z,19.21
2018-06-03T05:23:54.772Z,19.18
2018-06-03T05:24:54.701Z,19.24
2018-06-03T05:25:54.630Z,19.27
2018-06-03T05:26:54.553Z,19.33
2018-06-03T05:27:54.523Z,19.34
2018-06-03T05:28:54.411Z,19.29
2018-06-03T05:29:54.335Z,19.30
2018-06-03T05:30:54.278Z,19.31
2018-06-03T05:31:54.191Z,19.39
2018-06-03T05:32:54.117Z,19.39
2018-06-03T05:33:54.044Z,19.41
2018-06-03T05:34:53.975Z,19.62
2018-06-03T05:35:53.899Z,19.51
2018-06-03T05:36:53.828Z,19.62
2018-06-03T05:37:53.752Z,19.67
2018-06-03T05:38:53.679Z,19.70
2018-06-03T05:39:53.607Z,19.76
2018-06-03T05:40:53.538Z,19.84
2018-06-03T05:41:53.521Z,19.79
2018-06-03T05:42:53.389Z,19.84
2018-06-03T05:43:53.317Z,19.82
2018-06-03T05:44:53.244Z,19.86
2018-06-03T05:45:53.183Z,19.92
2018-06-03T05:46:53.099Z,19.95
2018-06-03T05:47:53.027Z,19.96
2018-06-03T05:48:52.956Z,20.07
2018-06-03T05:49:52.885Z,20.06
2018-06-03T05:50:52.814Z,20.04
2018-06-03T05:51:52.783Z,20.07
2018-06-03T05:52:52.681Z,20.14
2018-06-03T05:53:52.592Z,20.13
2018-06-03T05:54:52.520Z,20.26
2018-06-03T05:55:52.497Z,20.16
2018-06-03T05:56:53.183Z,20.21
2018-06-03T05:57:52.325Z,20.25
2018-06-03T05:58:52.242Z,20.28
2018-06-03T05:59:52.163Z,20.34
2018-06-03T06:00:52.096Z,20.21
2018-06-03T06:01:52.020Z,20.22
2018-06-03T06:02:51.944Z,20.39
2018-06-03T06:03:52.687Z,20.26
2018-06-03T06:04:51.799Z,20.40
2018-06-03T06:05:51.725Z,20.36
2018-06-03T06:06:51.656Z,20.29
2018-06-03T06:07:51.583Z,20.34
2018-06-03T06:08:52.691Z,20.40
2018-06-03T06:09:52.183Z,20.34
2018-06-03T06:10:51.364Z,20.37
2018-06-03T06:11:51.302Z,20.29
2018-06-03T06:12:51.234Z,20.31
2018-06-03T06:13:51.167Z,20.44
2018-06-03T06:14:51.077Z,20.50
2018-06-03T06:15:51.009Z,20.51
2018-06-03T06:16:50.956Z,20.52
2018-06-03T06:17:51.687Z,20.52
2018-06-03T06:18:50.791Z,20.56
2018-06-03T06:19:50.719Z,20.59
2018-06-03T06:20:50.647Z,20.63
2018-06-03T06:21:51.187Z,20.63
2018-06-03T06:22:50.503Z,20.67
2018-06-03T06:23:51.187Z,20.63
2018-06-03T06:24:50.360Z,20.60
2018-06-03T06:25:50.288Z,20.66
2018-06-03T06:26:50.214Z,20.77
2018-06-03T06:27:50.689Z,20.75
2018-06-03T06:28:50.691Z,20.74
2018-06-03T06:29:49.999Z,20.77
2018-06-03T06:30:49.926Z,20.77
2018-06-03T06:31:49.854Z,20.81
2018-06-03T06:32:51.687Z,20.75
2018-06-03T06:33:49.710Z,20.80
2018-06-03T06:34:49.675Z,20.84
2018-06-03T06:35:49.565Z,20.82
2018-06-03T06:36:49.494Z,20.96
2018-06-03T06:37:49.422Z,21.02
2018-06-03T06:38:49.350Z,21.02
2018-06-03T06:39:49.281Z,20.95
2018-06-03T06:40:49.260Z,20.95
2018-06-03T06:41:49.136Z,21.03
2018-06-03T06:42:49.077Z,21.05
2018-06-03T06:43:48.993Z,21.12
2018-06-03T06:44:48.924Z,21.12
2018-06-03T06:45:48.851Z,21.14
2018-06-03T06:46:49.696Z,21.18
2018-06-03T06:47:48.707Z,21.24
2018-06-03T06:48:48.636Z,21.29
2018-06-03T06:49:48.564Z,21.29
2018-06-03T06:50:48.493Z,21.33
2018-06-03T06:51:48.441Z,21.24
2018-06-03T06:52:48.351Z,21.27
2018-06-03T06:53:49.198Z,21.33
2018-06-03T06:54:49.198Z,21.42
2018-06-03T06:55:48.137Z,21.43
2018-06-03T06:56:48.070Z,21.45
2018-06-03T06:57:48.000Z,21.51
2018-06-03T06:58:47.923Z,21.55
2018-06-03T06:59:48.727Z,21.55
2018-06-03T07:00:47.781Z,21.48
2018-06-03T07:01:47.710Z,21.45
2018-06-03T07:02:47.645Z,21.57
2018-06-03T07:03:47.567Z,21.55
2018-06-03T07:04:47.497Z,21.64
2018-06-03T07:05:47.449Z,21.69
2018-06-03T07:06:47.440Z,21.62
2018-06-03T07:07:47.280Z,21.66
2018-06-03T07:08:47.708Z,21.62
2018-06-03T07:09:47.143Z,21.62
2018-06-03T07:10:47.077Z,21.72
2018-06-03T07:11:47.712Z,21.72
2018-06-03T07:12:46.925Z,21.72
2018-06-03T07:13:46.855Z,21.76
2018-06-03T07:14:46.784Z,21.75
2018-06-03T07:15:46.714Z,21.73
2018-06-03T07:16:46.646Z,21.82
2018-06-03T07:17:47.213Z,21.80
2018-06-03T07:18:46.501Z,21.80
2018-06-03T07:19:46.427Z,21.82
2018-06-03T07:20:46.356Z,21.85
2018-06-03T07:21:46.290Z,21.91
2018-06-03T07:22:46.245Z,21.95
2018-06-03T07:23:46.146Z,22.00
2018-06-03T07:24:46.076Z,22.04
2018-06-03T07:25:46.027Z,22.06
2018-06-03T07:26:45.933Z,22.00
2018-06-03T07:27:45.866Z,22.14
2018-06-03T07:28:45.793Z,22.02
2018-06-03T07:29:45.725Z,22.14
2018-06-03T07:30:45.648Z,22.18
2018-06-03T07:31:45.578Z,22.11
2018-06-03T07:32:45.513Z,22.15
2018-06-03T07:33:45.488Z,22.20
2018-06-03T07:34:45.364Z,22.18
2018-06-03T07:35:45.295Z,22.25
2018-06-03T07:36:45.224Z,22.32
2018-06-03T07:37:45.152Z,22.29
2018-06-03T07:38:45.083Z,22.32
2018-06-03T07:39:45.054Z,22.36
2018-06-03T07:40:44.942Z,22.41
2018-06-03T07:41:44.910Z,22.50
2018-06-03T07:42:44.799Z,22.51
2018-06-03T07:43:44.836Z,22.60
2018-06-03T07:44:44.667Z,22.59
2018-06-03T07:45:44.587Z,22.57
2018-06-03T07:46:44.515Z,22.69
2018-06-03T07:47:44.448Z,22.59
2018-06-03T07:48:44.381Z,22.72
2018-06-03T07:49:44.310Z,22.72
2018-06-03T07:50:44.238Z,22.66
2018-06-03T07:51:44.184Z,22.73
2018-06-03T07:52:44.094Z,22.70
2018-06-03T07:53:44.026Z,22.75
2018-06-03T07:54:43.952Z,22.76
2018-06-03T07:55:43.879Z,22.81
2018-06-03T07:56:43.809Z,22.78
2018-06-03T07:57:43.739Z,22.76
2018-06-03T07:58:43.680Z,22.78
2018-06-03T07:59:43.595Z,22.87
2018-06-03T08:00:43.525Z,22.90
2018-06-03T08:01:43.457Z,22.94
2018-06-03T08:02:43.384Z,22.93
2018-06-03T08:03:43.316Z,22.94
2018-06-03T08:04:43.240Z,22.96
2018-06-03T08:05:43.172Z,22.94
2018-06-03T08:06:43.100Z,23.02
2018-06-03T08:07:43.030Z,23.03
2018-06-03T08:08:42.961Z,23.08
2018-06-03T08:09:42.902Z,23.06
2018-06-03T08:10:42.818Z,23.02
2018-06-03T08:11:42.761Z,23.05
2018-06-03T08:12:42.677Z,23.15
2018-06-03T08:13:42.659Z,23.13
2018-06-03T08:14:42.541Z,23.13
2018-06-03T08:15:42.467Z,23.18
2018-06-03T08:16:42.397Z,23.24
2018-06-03T08:17:42.421Z,23.17
2018-06-03T08:18:42.254Z,23.24
2018-06-03T08:19:42.191Z,23.24
2018-06-03T08:20:42.115Z,23.28
2018-06-03T08:21:42.044Z,23.39
2018-06-03T08:22:41.978Z,23.32
2018-06-03T08:23:41.904Z,23.37
2018-06-03T08:24:41.845Z,23.46
2018-06-03T08:25:41.762Z,23.48
2018-06-03T08:26:41.692Z,23.47
2018-06-03T08:27:41.622Z,23.48
2018-06-03T08:28:41.554Z,23.51
2018-06-03T08:29:41.483Z,23.44
2018-06-03T08:30:41.411Z,23.51
2018-06-03T08:31:41.339Z,23.55
2018-06-03T08:32:41.269Z,23.47
2018-06-03T08:33:41.198Z,23.46
2018-06-03T08:34:41.130Z,23.46
2018-06-03T08:35:41.059Z,23.48
2018-06-03T08:36:41.027Z,23.54
2018-06-03T08:37:40.918Z,23.56
2018-06-03T08:38:40.847Z,23.54
2018-06-03T08:39:40.783Z,23.50
2018-06-03T08:40:40.708Z,23.47
2018-06-03T08:41:40.638Z,23.58
2018-06-03T08:42:40.566Z,23.62
2018-06-03T08:43:40.497Z,23.65
2018-06-03T08:44:40.433Z,23.62
2018-06-03T08:45:40.356Z,23.66
2018-06-03T08:46:40.286Z,23.65
2018-06-03T08:47:40.216Z,23.77
2018-06-03T08:48:40.147Z,23.76
2018-06-03T08:49:40.076Z,23.68
2018-06-03T08:50:40.007Z,23.84
2018-06-03T08:51:39.941Z,23.78
2018-06-03T08:52:39.908Z,23.83
2018-06-03T08:53:39.797Z,23.83
2018-06-03T08:54:39.725Z,23.83
2018-06-03T08:55:39.712Z,23.92
2018-06-03T08:56:39.587Z,23.91
2018-06-03T08:57:39.520Z,23.83
2018-06-03T08:58:39.510Z,23.92
2018-06-03T08:59:39.375Z,24.02
2018-06-03T09:00:39.371Z,23.98
2018-06-03T09:01:39.246Z,23.99
2018-06-03T09:02:39.169Z,24.11
2018-06-03T09:03:39.097Z,24.01
2018-06-03T09:04:39.027Z,24.13
2018-06-03T09:05:38.956Z,24.20
2018-06-03T09:06:38.885Z,24.21
2018-06-03T09:07:38.823Z,24.20
2018-06-03T09:08:38.749Z,24.21
2018-06-03T09:09:38.675Z,24.23
2018-06-03T09:10:38.610Z,24.24
2018-06-03T09:11:38.543Z,24.32
2018-06-03T09:12:38.472Z,24.45
2018-06-03T09:13:38.398Z,24.36
2018-06-03T09:14:38.333Z,24.50
2018-06-03T09:15:38.287Z,24.54
2018-06-03T09:16:38.199Z,24.58
2018-06-03T09:17:38.146Z,24.60
2018-06-03T09:18:38.050Z,24.65
2018-06-03T09:19:37.983Z,24.69
2018-06-03T09:20:37.915Z,24.73
2018-06-03T09:21:37.840Z,24.76
2018-06-03T09:22:37.776Z,24.73
2018-06-03T09:23:37.705Z,24.77
2018-06-03T09:24:37.635Z,24.86
2018-06-03T09:25:37.564Z,24.91
2018-06-03T09:26:37.494Z,24.95
2018-06-03T09:27:37.425Z,24.96
2018-06-03T09:28:37.359Z,24.98
2018-06-03T09:29:37.292Z,25.10
2018-06-03T09:30:37.221Z,25.13
2018-06-03T09:31:37.154Z,25.13
2018-06-03T09:32:37.080Z,25.16
2018-06-03T09:33:37.012Z,25.25
2018-06-03T09:34:36.969Z,25.33
2018-06-03T09:35:36.874Z,25.29
2018-06-03T09:36:36.804Z,25.32
2018-06-03T09:37:36.743Z,25.35
2018-06-03T09:38:36.668Z,25.38
2018-06-03T09:39:36.605Z,25.46
2018-06-03T09:40:36.530Z,25.36
2018-06-03T09:41:36.461Z,25.54
2018-06-03T09:42:36.390Z,25.41
2018-06-03T09:43:36.321Z,25.48
2018-06-03T09:44:36.278Z,25.50
2018-06-03T09:45:36.188Z,25.46
2018-06-03T09:46:36.116Z,25.51
2018-06-03T09:47:36.049Z,25.60
2018-06-03T09:48:35.981Z,25.59
2018-06-03T09:49:35.911Z,25.65
2018-06-03T09:50:35.841Z,25.62
2018-06-03T09:51:35.775Z,25.62
2018-06-03T09:52:35.704Z,25.66
2018-06-03T09:53:35.639Z,25.65
2018-06-03T09:54:35.569Z,25.68
2018-06-03T09:55:35.500Z,25.75
2018-06-03T09:56:35.434Z,25.85
2018-06-03T09:57:35.363Z,25.81
2018-06-03T09:58:35.294Z,25.93
2018-06-03T09:59:35.239Z,25.99
2018-06-03T10:00:35.159Z,25.99
2018-06-03T10:01:35.089Z,25.96
2018-06-03T10:02:35.021Z,25.98
2018-06-03T10:03:34.952Z,26.06
2018-06-03T10:04:34.885Z,26.09
2018-06-03T10:05:34.825Z,25.99
2018-06-03T10:06:34.748Z,26.00
2018-06-03T10:07:34.679Z,26.06
2018-06-03T10:08:34.616Z,26.15
2018-06-03T10:09:34.553Z,26.15
2018-06-03T10:10:34.474Z,26.23
2018-06-03T10:11:34.409Z,26.21
2018-06-03T10:12:34.338Z,26.26
2018-06-03T10:13:34.280Z,26.29
2018-06-03T10:14:34.225Z,26.19
2018-06-03T10:15:34.134Z,26.22
2018-06-03T10:16:34.067Z,26.22
2018-06-03T10:17:33.999Z,26.18
2018-06-03T10:18:33.931Z,26.13
2018-06-03T10:19:33.874Z,26.09
2018-06-03T10:20:33.805Z,26.05
2018-06-03T10:21:33.771Z,25.99
2018-06-03T10:22:33.658Z,26.00
2018-06-03T10:23:33.590Z,26.00
2018-06-03T10:24:33.523Z,26.09
2018-06-03T10:25:33.453Z,26.15
2018-06-03T10:26:33.389Z,26.15
2018-06-03T10:27:33.317Z,26.26
2018-06-03T10:28:33.254Z,26.22
2018-06-03T10:29:33.182Z,26.22
2018-06-03T10:30:33.115Z,26.19
2018-06-03T10:31:33.053Z,26.21
2018-06-03T10:32:32.985Z,26.18
2018-06-03T10:33:32.914Z,26.15
2018-06-03T10:34:32.843Z,26.28
2018-06-03T10:35:32.776Z,26.28
2018-06-03T10:36:32.708Z,26.34
2018-06-03T10:37:32.641Z,26.37
2018-06-03T10:38:32.570Z,26.53
2018-06-03T10:39:32.502Z,26.44
2018-06-03T10:40:32.434Z,26.44
2018-06-03T10:41:32.368Z,26.41
2018-06-03T10:42:32.299Z,26.48
2018-06-03T10:43:32.234Z,26.56
2018-06-03T10:44:32.166Z,26.58
2018-06-03T10:45:32.098Z,26.59
2018-06-03T10:46:32.027Z,26.77
2018-06-03T10:47:31.960Z,26.85
2018-06-03T10:48:31.893Z,26.73
2018-06-03T10:49:31.829Z,27.00
2018-06-03T10:50:31.756Z,27.07
2018-06-03T10:51:31.689Z,27.25
2018-06-03T10:52:31.629Z,27.27
2018-06-03T10:53:31.555Z,27.33
2018-06-03T10:54:31.518Z,27.35
2018-06-03T10:55:31.420Z,27.47
2018-06-03T10:56:31.352Z,27.44
2018-06-03T10:57:31.284Z,27.39
2018-06-03T10:58:31.215Z,27.39
2018-06-03T10:59:31.161Z,27.35
2018-06-03T11:00:31.084Z,27.26
2018-06-03T11:01:31.018Z,27.07
2018-06-03T11:02:30.949Z,26.88
2018-06-03T11:03:30.884Z,26.96
2018-06-03T11:04:30.833Z,26.99
2018-06-03T11:05:30.778Z,27.10
2018-06-03T11:06:30.678Z,27.20
2018-06-03T11:07:30.614Z,27.21
2018-06-03T11:08:30.549Z,27.30
2018-06-03T11:09:30.477Z,27.30
2018-06-03T11:10:30.409Z,27.37
2018-06-03T11:11:30.342Z,27.45
2018-06-03T11:12:30.274Z,27.45
2018-06-03T11:13:30.222Z,27.37
2018-06-03T11:14:30.153Z,27.42
2018-06-03T11:15:30.073Z,27.37
2018-06-03T11:16:30.013Z,27.40
2018-06-03T11:17:29.943Z,27.35
2018-06-03T11:18:29.875Z,27.40
2018-06-03T11:19:29.804Z,27.42
2018-06-03T11:20:29.739Z,27.47
2018-06-03T11:21:29.671Z,27.42
2018-06-03T11:22:29.611Z,27.39
2018-06-03T11:23:29.535Z,27.47
2018-06-03T11:24:29.468Z,27.48
2018-06-03T11:25:29.401Z,27.59
2018-06-03T11:26:29.340Z,27.60
2018-06-03T11:27:29.276Z,27.67
2018-06-03T11:28:29.201Z,27.77
2018-06-03T11:29:29.132Z,27.70
2018-06-03T11:30:29.063Z,27.83
2018-06-03T11:31:29.012Z,27.90
2018-06-03T11:32:28.931Z,27.96
2018-06-03T11:33:28.866Z,27.95
2018-06-03T11:34:28.799Z,27.98
2018-06-03T11:35:28.736Z,28.05
2018-06-03T11:36:28.663Z,28.04
2018-06-03T11:37:28.597Z,28.14
2018-06-03T11:38:28.529Z,28.27
2018-06-03T11:39:28.465Z,28.32
2018-06-03T11:40:28.405Z,28.32
2018-06-03T11:41:28.330Z,28.37
2018-06-03T11:42:28.263Z,28.38
2018-06-03T11:43:28.202Z,28.30
2018-06-03T11:44:28.130Z,28.37
2018-06-03T11:45:28.135Z,28.38
2018-06-03T11:46:28.010Z,28.38
2018-06-03T11:47:27.935Z,28.41
2018-06-03T11:48:27.873Z,28.52
2018-06-03T11:49:27.795Z,28.49
2018-06-03T11:50:27.727Z,28.64
2018-06-03T11:51:27.717Z,28.70
2018-06-03T11:52:27.600Z,28.69
2018-06-03T11:53:27.528Z,28.72
2018-06-03T11:54:27.470Z,28.72
2018-06-03T11:55:27.395Z,28.81
2018-06-03T11:56:27.330Z,28.82
2018-06-03T11:57:27.263Z,28.85
2018-06-03T11:58:27.195Z,28.88
2018-06-03T11:59:27.129Z,28.93
2018-06-03T12:00:27.069Z,28.97
2018-06-03T12:01:27.001Z,29.13
2018-06-03T12:02:26.930Z,29.27
2018-06-03T12:03:26.863Z,29.34
2018-06-03T12:04:26.798Z,29.41
2018-06-03T12:05:26.739Z,29.36
2018-06-03T12:06:26.664Z,29.29
2018-06-03T12:07:26.602Z,29.12
2018-06-03T12:08:26.537Z,29.12
2018-06-03T12:09:26.472Z,29.04
2018-06-03T12:10:26.403Z,28.86
2018-06-03T12:11:26.336Z,28.86
2018-06-03T12:12:26.269Z,28.79
2018-06-03T12:13:26.202Z,28.74
2018-06-03T12:14:26.151Z,28.72
2018-06-03T12:15:26.085Z,28.76
2018-06-03T12:16:26.002Z,28.66
2018-06-03T12:17:25.936Z,28.63
2018-06-03T12:18:25.876Z,28.70
2018-06-03T12:19:25.804Z,28.59
2018-06-03T12:20:25.738Z,28.69
2018-06-03T12:21:25.671Z,28.86
2018-06-03T12:22:25.609Z,29.01
2018-06-03T12:23:25.538Z,29.07
2018-06-03T12:24:25.477Z,29.05
2018-06-03T12:25:25.417Z,29.17
2018-06-03T12:26:25.341Z,29.20
2018-06-03T12:27:25.295Z,29.14
2018-06-03T12:28:25.221Z,29.22
2018-06-03T12:29:25.140Z,29.23
2018-06-03T12:30:25.075Z,29.23
2018-06-03T12:31:25.009Z,29.26
2018-06-03T12:32:24.948Z,29.41
2018-06-03T12:33:24.878Z,29.41
2018-06-03T12:34:24.810Z,29.53
2018-06-03T12:35:24.744Z,29.56
2018-06-03T12:36:24.694Z,29.69
2018-06-03T12:37:24.613Z,29.75
2018-06-03T12:38:24.548Z,29.81
2018-06-03T12:39:24.481Z,29.86
2018-06-03T12:40:24.423Z,29.91
2018-06-03T12:41:24.354Z,29.95
2018-06-03T12:42:24.288Z,30.10
2018-06-03T12:43:24.229Z,30.16
2018-06-03T12:44:24.152Z,30.13
2018-06-03T12:45:24.087Z,30.32
2018-06-03T12:46:24.037Z,30.27
2018-06-03T12:47:23.957Z,30.31
2018-06-03T12:48:23.900Z,30.12
2018-06-03T12:49:23.825Z,30.19
2018-06-03T12:50:23.762Z,30.15
2018-06-03T12:51:23.694Z,30.12